createdAt,value
2018-12-26T00:00:26.062Z,6.30
2018-12-26T00:01:26.068Z,6.40
2018-12-26T00:02:26.036Z,8.30
2018-12-26T00:03:26.024Z,7.10
2018-12-26T00:04:26.044Z,7.60
2018-12-26T00:05:26.086Z,9.20
2018-12-26T00:06:25.995Z,7.30
2018-12-26T00:07:25.988Z,6.70
2018-12-26T00:08:25.975Z,6.80
2018-12-26T00:09:25.959Z,7.00
2018-12-26T00:10:25.951Z,7.40
2018-12-26T00:11:25.948Z,9.30
2018-12-26T00:12:25.931Z,7.20
2018-12-26T00:13:25.916Z,6.60
2018-12-26T00:14:25.910Z,5.90
2018-12-26T00:15:25.898Z,5.40
2018-12-26T00:16:25.895Z,7.50
2018-12-26T00:17:25.889Z,8.40
2018-12-26T00:18:26.015Z,7.20
2018-12-26T00:19:25.847Z,6.70
2018-12-26T00:20:27.331Z,7.60
2018-12-26T00:21:25.842Z,6.90
2018-12-26T00:22:25.829Z,6.20
2018-12-26T00:23:25.815Z,7.90
2018-12-26T00:24:25.805Z,7.70
2018-12-26T00:25:25.798Z,5.10
2018-12-26T00:26:25.781Z,9.60
2018-12-26T00:27:25.772Z,7.30
2018-12-26T00:28:25.760Z,6.60
2018-12-26T00:29:25.751Z,7.40
2018-12-26T00:30:25.746Z,6.70
2018-12-26T00:31:25.729Z,6.90
2018-12-26T00:32:25.717Z,6.50
2018-12-26T00:33:25.701Z,7.90
2018-12-26T00:34:25.704Z,9.30
2018-12-26T00:35:25.691Z,8.20
2018-12-26T00:36:25.690Z,6.20
2018-12-26T00:37:25.664Z,5.80
2018-12-26T00:38:25.656Z,7.30
2018-12-26T00:39:25.654Z,8.30
2018-12-26T00:40:25.639Z,8.80
2018-12-26T00:41:25.630Z,8.50
2018-12-26T00:42:25.608Z,7.10
2018-12-26T00:43:25.601Z,8.70
2018-12-26T00:44:25.668Z,6.50
2018-12-26T00:45:25.575Z,9.30
2018-12-26T00:46:25.566Z,8.10
2018-12-26T00:47:25.566Z,9.00
2018-12-26T00:48:25.566Z,6.60
2018-12-26T00:49:25.539Z,7.50
2018-12-26T00:50:25.525Z,7.30
2018-12-26T00:51:25.517Z,7.60
2018-12-26T00:52:25.506Z,7.10
2018-12-26T00:53:25.512Z,7.50
2018-12-26T00:54:25.485Z,7.30
2018-12-26T00:55:25.473Z,5.60
2018-12-26T00:56:25.460Z,8.00
2018-12-26T00:57:25.450Z,7.50
2018-12-26T00:58:25.440Z,8.70
2018-12-26T00:59:25.442Z,6.50
2018-12-26T01:00:25.424Z,7.70
2018-12-26T01:01:25.420Z,6.80
2018-12-26T01:02:25.398Z,7.60
2018-12-26T01:03:25.413Z,8.10
2018-12-26T01:04:25.397Z,7.00
2018-12-26T01:05:25.369Z,8.80
2018-12-26T01:06:25.359Z,6.60
2018-12-26T01:07:25.341Z,7.80
2018-12-26T01:08:25.334Z,7.40
2018-12-26T01:09:25.369Z,8.50
2018-12-26T01:10:25.309Z,7.10
2018-12-26T01:11:25.313Z,9.10
2018-12-26T01:12:25.353Z,7.70
2018-12-26T01:13:25.284Z,6.70
2018-12-26T01:14:25.269Z,7.80
2018-12-26T01:15:25.264Z,7.40
2018-12-26T01:16:25.280Z,7.00
2018-12-26T01:17:25.257Z,5.80
2018-12-26T01:18:25.226Z,8.20
2018-12-26T01:19:25.215Z,6.40
2018-12-26T01:20:25.211Z,7.50
2018-12-26T01:21:25.198Z,7.70
2018-12-26T01:22:25.189Z,7.90
2018-12-26T01:23:25.196Z,7.80
2018-12-26T01:24:25.166Z,6.10
2018-12-26T01:25:25.155Z,6.60
2018-12-26T01:26:25.141Z,6.40
2018-12-26T01:27:25.142Z,6.20
2018-12-26T01:28:25.132Z,8.90
2018-12-26T01:29:25.122Z,7.40
2018-12-26T01:30:25.105Z,8.90
2018-12-26T01:31:25.086Z,7.20
2018-12-26T01:32:25.080Z,8.60
2018-12-26T01:33:25.076Z,10.00
2018-12-26T01:34:25.064Z,7.00
2018-12-26T01:35:25.052Z,6.90
2018-12-26T01:36:25.034Z,7.60
2018-12-26T01:37:25.030Z,5.90
2018-12-26T01:38:25.016Z,8.50
2018-12-26T01:39:25.041Z,6.70
2018-12-26T01:40:24.996Z,5.60
2018-12-26T01:41:24.993Z,7.80
2018-12-26T01:42:24.974Z,8.00
2018-12-26T01:43:24.962Z,6.40
2018-12-26T01:44:24.965Z,7.60
2018-12-26T01:45:24.994Z,7.50
2018-12-26T01:46:24.937Z,7.60
2018-12-26T01:47:24.930Z,8.10
2018-12-26T01:48:24.906Z,5.80
2018-12-26T01:49:24.907Z,7.30
2018-12-26T01:50:24.891Z,6.70
2018-12-26T01:51:24.884Z,7.20
2018-12-26T01:52:24.878Z,6.80
2018-12-26T01:53:24.858Z,7.40
2018-12-26T01:54:24.845Z,6.30
2018-12-26T01:55:24.837Z,7.70
2018-12-26T01:56:28.103Z,6.70
2018-12-26T01:57:24.812Z,6.50
2018-12-26T01:58:24.804Z,8.60
2018-12-26T01:59:24.790Z,5.30
2018-12-26T02:00:24.783Z,7.40
2018-12-26T02:01:24.769Z,7.10
2018-12-26T02:02:24.780Z,7.80
2018-12-26T02:03:24.748Z,7.80
2018-12-26T02:04:24.739Z,7.00
2018-12-26T02:05:24.734Z,8.10
2018-12-26T02:06:24.766Z,7.60
2018-12-26T02:07:24.711Z,7.70
2018-12-26T02:08:24.698Z,8.30
2018-12-26T02:09:24.688Z,8.10
2018-12-26T02:10:24.674Z,6.90
2018-12-26T02:11:24.664Z,8.80
2018-12-26T02:12:24.657Z,7.80
2018-12-26T02:13:24.646Z,6.40
2018-12-26T02:14:24.632Z,9.50
2018-12-26T02:15:24.630Z,9.00
2018-12-26T02:16:24.613Z,7.30
2018-12-26T02:17:24.597Z,8.10
2018-12-26T02:18:24.592Z,6.90
2018-12-26T02:19:24.582Z,7.90
2018-12-26T02:20:24.568Z,8.80
2018-12-26T02:21:24.557Z,8.70
2018-12-26T02:22:24.547Z,7.60
2018-12-26T02:23:24.544Z,9.10
2018-12-26T02:24:24.630Z,8.40
2018-12-26T02:25:24.531Z,8.30
2018-12-26T02:26:24.508Z,7.70
2018-12-26T02:27:24.493Z,8.90
2018-12-26T02:28:24.484Z,7.10
2018-12-26T02:29:24.483Z,9.30
2018-12-26T02:30:24.466Z,7.40
2018-12-26T02:31:24.452Z,7.90
2018-12-26T02:32:24.437Z,8.80
2018-12-26T02:33:24.424Z,8.70
2018-12-26T02:34:24.421Z,7.60
2018-12-26T02:35:24.409Z,8.20
2018-12-26T02:36:24.394Z,10.40
2018-12-26T02:37:24.388Z,10.30
2018-12-26T02:38:24.385Z,8.40
2018-12-26T02:39:24.362Z,8.60
2018-12-26T02:40:24.356Z,8.40
2018-12-26T02:41:24.342Z,9.10
2018-12-26T02:42:24.334Z,10.50
2018-12-26T02:43:24.315Z,9.90
2018-12-26T02:44:24.318Z,11.60
2018-12-26T02:45:24.313Z,9.80
2018-12-26T02:46:24.286Z,10.60
2018-12-26T02:47:24.278Z,10.70
2018-12-26T02:48:24.265Z,9.10
2018-12-26T02:49:24.254Z,9.20
2018-12-26T02:50:24.244Z,10.90
2018-12-26T02:51:26.956Z,11.10
2018-12-26T02:52:24.222Z,12.70
2018-12-26T02:53:24.210Z,11.30
2018-12-26T02:54:24.202Z,12.10
2018-12-26T02:55:24.190Z,10.60
2018-12-26T02:56:24.179Z,10.70
2018-12-26T02:57:24.166Z,11.30
2018-12-26T02:58:24.155Z,12.00
2018-12-26T02:59:24.146Z,12.70
2018-12-26T03:00:24.137Z,12.50
2018-12-26T03:01:24.146Z,13.80
2018-12-26T03:02:24.117Z,13.40
2018-12-26T03:03:24.103Z,12.30
2018-12-26T03:04:24.096Z,13.20
2018-12-26T03:05:24.077Z,14.70
2018-12-26T03:06:24.070Z,13.10
2018-12-26T03:07:24.077Z,13.80
2018-12-26T03:08:24.051Z,15.80
2018-12-26T03:09:24.051Z,15.00
2018-12-26T03:10:24.032Z,13.60
2018-12-26T03:11:24.017Z,16.30
2018-12-26T03:12:24.013Z,15.10
2018-12-26T03:13:24.000Z,15.20
2018-12-26T03:14:24.016Z,14.50
2018-12-26T03:15:23.976Z,14.00
2018-12-26T03:16:24.112Z,15.40
2018-12-26T03:17:23.956Z,15.30
2018-12-26T03:18:23.950Z,15.20
2018-12-26T03:19:23.932Z,16.20
2018-12-26T03:20:23.926Z,17.30
2018-12-26T03:21:23.915Z,16.40
2018-12-26T03:22:23.903Z,15.80
2018-12-26T03:23:23.892Z,15.60
2018-12-26T03:24:23.912Z,17.60
2018-12-26T03:25:23.866Z,17.60
2018-12-26T03:26:23.859Z,17.40
2018-12-26T03:27:23.855Z,17.50
2018-12-26T03:28:23.835Z,16.30
2018-12-26T03:29:23.834Z,15.60
2018-12-26T03:30:24.040Z,17.40
2018-12-26T03:31:23.810Z,16.00
2018-12-26T03:32:23.803Z,18.10
2018-12-26T03:33:23.781Z,19.90
2018-12-26T03:34:23.771Z,15.90
2018-12-26T03:35:23.783Z,18.80
2018-12-26T03:36:23.751Z,17.70
2018-12-26T03:37:23.746Z,17.90
2018-12-26T03:38:23.726Z,17.80
2018-12-26T03:39:23.722Z,17.00
2018-12-26T03:40:23.716Z,17.40
2018-12-26T03:41:23.696Z,16.50
2018-12-26T03:42:23.688Z,17.00
2018-12-26T03:43:23.677Z,17.70
2018-12-26T03:44:23.671Z,18.20
2018-12-26T03:45:23.656Z,17.80
2018-12-26T03:46:23.648Z,19.20
2018-12-26T03:47:23.638Z,18.20
2018-12-26T03:48:23.628Z,17.60
2018-12-26T03:49:23.614Z,18.40
2018-12-26T03:50:23.615Z,18.90
2018-12-26T03:51:23.596Z,17.80
2018-12-26T03:52:23.583Z,18.40
2018-12-26T03:53:23.574Z,17.70
2018-12-26T03:54:23.566Z,18.40
2018-12-26T03:55:23.554Z,17.80
2018-12-26T03:56:23.545Z,16.80
2018-12-26T03:57:23.535Z,17.40
2018-12-26T03:58:23.525Z,17.10
2018-12-26T03:59:23.506Z,16.40
2018-12-26T04:00:23.568Z,17.80
2018-12-26T04:01:23.497Z,18.50
2018-12-26T04:02:23.477Z,18.40
2018-12-26T04:03:23.472Z,17.20
2018-12-26T04:04:23.456Z,17.70
2018-12-26T04:05:23.446Z,17.10
2018-12-26T04:06:23.446Z,17.50
2018-12-26T04:07:23.432Z,16.90
2018-12-26T04:08:23.416Z,17.50
2018-12-26T04:09:23.402Z,17.40
2018-12-26T04:10:23.394Z,17.10
2018-12-26T04:11:23.385Z,17.40
2018-12-26T04:12:23.379Z,17.70
2018-12-26T04:13:23.374Z,17.70
2018-12-26T04:14:23.363Z,18.00
2018-12-26T04:15:23.345Z,16.70
2018-12-26T04:16:23.333Z,16.10
2018-12-26T04:17:23.318Z,16.80
2018-12-26T04:18:23.316Z,16.40
2018-12-26T04:19:23.305Z,17.90
2018-12-26T04:20:23.291Z,17.40
2018-12-26T04:21:23.282Z,16.20
2018-12-26T04:22:23.269Z,17.30
2018-12-26T04:23:23.280Z,15.70
2018-12-26T04:24:23.251Z,16.20
2018-12-26T04:25:23.232Z,16.70
2018-12-26T04:26:23.236Z,16.00
2018-12-26T04:27:23.224Z,15.90
2018-12-26T04:28:23.204Z,16.30
2018-12-26T04:29:23.190Z,15.60
2018-12-26T04:30:23.184Z,16.40
2018-12-26T04:31:23.175Z,16.90
2018-12-26T04:32:23.166Z,16.60
2018-12-26T04:33:23.152Z,17.00
2018-12-26T04:34:23.144Z,17.40
2018-12-26T04:35:23.127Z,16.70
2018-12-26T04:36:23.138Z,17.40
2018-12-26T04:37:23.109Z,18.00
2018-12-26T04:38:23.100Z,17.00
2018-12-26T04:39:23.091Z,17.80
2018-12-26T04:40:23.080Z,17.30
2018-12-26T04:41:23.071Z,20.50
2018-12-26T04:42:23.062Z,17.90
2018-12-26T04:43:23.051Z,19.00
2018-12-26T04:44:23.049Z,18.70
2018-12-26T04:45:23.036Z,20.40
2018-12-26T04:46:23.034Z,22.50
2018-12-26T04:47:23.007Z,22.40
2018-12-26T04:48:22.996Z,20.20
2018-12-26T04:49:23.938Z,22.30
2018-12-26T04:50:22.982Z,19.60
2018-12-26T04:51:22.962Z,20.60
2018-12-26T04:52:22.954Z,22.00
2018-12-26T04:53:22.946Z,21.00
2018-12-26T04:54:22.934Z,22.00
2018-12-26T04:55:22.922Z,21.50
2018-12-26T04:56:22.918Z,21.50
2018-12-26T04:57:24.936Z,21.60
2018-12-26T04:58:22.943Z,22.30
2018-12-26T04:59:22.884Z,21.70
2018-12-26T05:00:22.868Z,24.60
2018-12-26T05:01:22.859Z,22.50
2018-12-26T05:02:22.847Z,22.80
2018-12-26T05:03:22.837Z,23.10
2018-12-26T05:04:22.822Z,24.00
2018-12-26T05:05:22.809Z,25.00
2018-12-26T05:06:22.802Z,23.30
2018-12-26T05:07:22.802Z,24.40
2018-12-26T05:08:22.780Z,23.10
2018-12-26T05:09:22.771Z,23.40
2018-12-26T05:10:22.755Z,23.30
2018-12-26T05:11:22.755Z,24.00
2018-12-26T05:12:22.743Z,24.70
2018-12-26T05:13:22.729Z,22.70
2018-12-26T05:14:22.712Z,27.10
2018-12-26T05:15:22.706Z,25.00
2018-12-26T05:16:22.698Z,24.30
2018-12-26T05:17:22.688Z,24.60
2018-12-26T05:18:22.672Z,24.40
2018-12-26T05:19:22.663Z,23.40
2018-12-26T05:20:22.764Z,26.90
2018-12-26T05:21:22.640Z,25.10
2018-12-26T05:22:22.653Z,25.60
2018-12-26T05:23:22.626Z,25.60
2018-12-26T05:24:22.614Z,23.50
2018-12-26T05:25:22.603Z,25.60
2018-12-26T05:26:22.588Z,24.90
2018-12-26T05:27:22.583Z,24.40
2018-12-26T05:28:22.571Z,24.10
2018-12-26T05:29:22.564Z,25.30
2018-12-26T05:30:22.553Z,23.60
2018-12-26T05:31:22.541Z,24.60
2018-12-26T05:32:22.528Z,25.40
2018-12-26T05:33:22.517Z,26.20
2018-12-26T05:34:22.507Z,25.10
2018-12-26T05:35:22.511Z,24.60
2018-12-26T05:36:22.484Z,25.40
2018-12-26T05:37:22.474Z,25.10
2018-12-26T05:38:22.473Z,23.50
2018-12-26T05:39:22.452Z,25.30
2018-12-26T05:40:22.440Z,24.40
2018-12-26T05:41:22.436Z,24.20
2018-12-26T05:42:22.420Z,26.10
2018-12-26T05:43:22.408Z,24.60
2018-12-26T05:44:22.394Z,23.50
2018-12-26T05:45:22.404Z,25.50
2018-12-26T05:46:22.376Z,26.00
2018-12-26T05:47:22.362Z,22.70
2018-12-26T05:48:22.359Z,25.00
2018-12-26T05:49:22.342Z,24.60
2018-12-26T05:50:22.330Z,24.40
2018-12-26T05:51:22.320Z,24.00
2018-12-26T05:52:22.312Z,22.80
2018-12-26T05:53:22.296Z,25.00
2018-12-26T05:54:22.289Z,25.40
2018-12-26T05:55:22.278Z,24.80
2018-12-26T05:56:22.261Z,23.80
2018-12-26T05:57:22.254Z,23.30
2018-12-26T05:58:22.246Z,25.90
2018-12-26T05:59:22.232Z,25.40
2018-12-26T06:00:22.220Z,23.60
2018-12-26T06:01:22.214Z,25.60
2018-12-26T06:02:22.219Z,26.10
2018-12-26T06:03:22.191Z,24.90
2018-12-26T06:04:22.183Z,25.30
2018-12-26T06:05:22.171Z,26.20
2018-12-26T06:06:22.164Z,26.00
2018-12-26T06:07:22.151Z,26.00
2018-12-26T06:08:22.139Z,25.20
2018-12-26T06:09:22.128Z,25.60
2018-12-26T06:10:22.119Z,25.80
2018-12-26T06:11:22.114Z,25.50
2018-12-26T06:12:22.104Z,23.70
2018-12-26T06:13:22.086Z,23.40
2018-12-26T06:14:22.074Z,24.50
2018-12-26T06:15:22.064Z,22.50
2018-12-26T06:16:22.070Z,27.00
2018-12-26T06:17:22.040Z,26.00
2018-12-26T06:18:22.037Z,27.00
2018-12-26T06:19:22.019Z,26.10
2018-12-26T06:20:22.013Z,26.20
2018-12-26T06:21:22.018Z,26.70
2018-12-26T06:22:22.000Z,27.10
2018-12-26T06:23:21.978Z,26.70
2018-12-26T06:24:21.977Z,26.40
2018-12-26T06:25:21.956Z,28.20
2018-12-26T06:26:21.946Z,24.10
2018-12-26T06:27:21.928Z,26.50
2018-12-26T06:28:21.923Z,25.80
2018-12-26T06:29:21.916Z,26.60
2018-12-26T06:30:21.914Z,26.50
2018-12-26T06:31:21.887Z,27.90
2018-12-26T06:32:24.056Z,26.70
2018-12-26T06:33:21.862Z,26.80
2018-12-26T06:34:21.868Z,27.30
2018-12-26T06:35:21.851Z,27.70
2018-12-26T06:36:21.848Z,26.90
2018-12-26T06:37:21.826Z,27.30
2018-12-26T06:38:21.812Z,26.80
2018-12-26T06:39:21.800Z,27.80
2018-12-26T06:40:21.794Z,26.60
2018-12-26T06:41:21.788Z,27.50
2018-12-26T06:42:21.775Z,28.00
2018-12-26T06:43:21.764Z,25.90
2018-12-26T06:44:21.768Z,27.80
2018-12-26T06:45:21.737Z,28.50
2018-12-26T06:46:21.728Z,27.60
2018-12-26T06:47:21.726Z,27.30
2018-12-26T06:48:21.707Z,29.80
2018-12-26T06:49:21.696Z,26.60
2018-12-26T06:50:21.681Z,27.20
2018-12-26T06:51:21.676Z,28.90
2018-12-26T06:52:21.668Z,27.40
2018-12-26T06:53:21.664Z,28.20
2018-12-26T06:54:21.640Z,28.00
2018-12-26T06:55:21.638Z,27.40
2018-12-26T06:56:21.622Z,28.60
2018-12-26T06:57:21.614Z,27.00
2018-12-26T06:58:21.603Z,27.60
2018-12-26T06:59:21.600Z,29.50
2018-12-26T07:00:21.575Z,31.00
2018-12-26T07:01:21.567Z,27.40
2018-12-26T07:02:21.557Z,29.40
2018-12-26T07:03:21.540Z,28.00
2018-12-26T07:04:21.536Z,27.00
2018-12-26T07:05:21.531Z,27.50
2018-12-26T07:06:21.514Z,29.00
2018-12-26T07:07:21.520Z,28.60
2018-12-26T07:08:21.490Z,30.90
2018-12-26T07:09:21.472Z,28.60
2018-12-26T07:10:21.472Z,27.60
2018-12-26T07:11:21.453Z,29.70
2018-12-26T07:12:21.442Z,27.70
2018-12-26T07:13:21.442Z,28.10
2018-12-26T07:14:21.422Z,28.10
2018-12-26T07:15:21.410Z,28.20
2018-12-26T07:16:21.405Z,29.00
2018-12-26T07:17:21.389Z,27.20
2018-12-26T07:18:21.377Z,26.80
2018-12-26T07:19:21.364Z,27.60
2018-12-26T07:20:21.375Z,28.20
2018-12-26T07:21:21.345Z,27.30
2018-12-26T07:22:21.349Z,27.20
2018-12-26T07:23:21.326Z,25.50
2018-12-26T07:24:21.310Z,29.90
2018-12-26T07:25:21.304Z,27.00
2018-12-26T07:26:21.293Z,28.00
2018-12-26T07:27:21.283Z,28.00
2018-12-26T07:28:21.281Z,26.20
2018-12-26T07:29:21.263Z,28.30
2018-12-26T07:30:21.248Z,26.20
2018-12-26T07:31:21.243Z,27.00
2018-12-26T07:32:21.238Z,25.40
2018-12-26T07:33:21.247Z,29.50
2018-12-26T07:34:21.208Z,26.00
2018-12-26T07:35:21.197Z,28.20
2018-12-26T07:36:21.195Z,26.80
2018-12-26T07:37:21.178Z,26.50
2018-12-26T07:38:21.161Z,25.90
2018-12-26T07:39:21.162Z,26.00
2018-12-26T07:40:21.157Z,29.40
2018-12-26T07:41:21.138Z,26.80
2018-12-26T07:42:21.125Z,27.40
2018-12-26T07:43:21.125Z,27.70
2018-12-26T07:44:21.105Z,26.70
2018-12-26T07:45:21.090Z,27.50
2018-12-26T07:46:21.088Z,27.60
2018-12-26T07:47:21.069Z,26.60
2018-12-26T07:48:21.062Z,27.60
2018-12-26T07:49:21.048Z,28.10
2018-12-26T07:50:21.049Z,27.60
2018-12-26T07:51:21.046Z,26.40
2018-12-26T07:52:21.024Z,28.90
2018-12-26T07:53:21.005Z,25.70
2018-12-26T07:54:20.993Z,27.80
2018-12-26T07:55:20.985Z,27.10
2018-12-26T07:56:20.978Z,27.10
2018-12-26T07:57:20.962Z,27.30
2018-12-26T07:58:20.953Z,29.10
2018-12-26T07:59:20.938Z,28.10
2018-12-26T08:00:20.932Z,27.90
2018-12-26T08:01:20.920Z,30.10
2018-12-26T08:02:20.904Z,29.20
2018-12-26T08:03:20.900Z,29.40
2018-12-26T08:04:20.890Z,31.00
2018-12-26T08:05:20.874Z,30.40
2018-12-26T08:06:20.861Z,28.10
2018-12-26T08:07:20.854Z,27.90
2018-12-26T08:08:20.842Z,27.20
2018-12-26T08:09:20.846Z,30.00
2018-12-26T08:10:20.818Z,27.60
2018-12-26T08:11:20.832Z,29.30
2018-12-26T08:12:20.801Z,30.70
2018-12-26T08:13:20.784Z,30.00
2018-12-26T08:14:20.857Z,28.80
2018-12-26T08:15:20.774Z,30.50
2018-12-26T08:16:20.755Z,30.80
2018-12-26T08:17:20.743Z,30.40
2018-12-26T08:18:20.732Z,31.10
2018-12-26T08:19:20.742Z,29.40
2018-12-26T08:20:20.721Z,32.00
2018-12-26T08:21:20.706Z,31.00
2018-12-26T08:22:20.688Z,32.60
2018-12-26T08:23:20.677Z,29.50
2018-12-26T08:24:20.678Z,29.10
2018-12-26T08:25:20.653Z,29.90
2018-12-26T08:26:20.652Z,31.90
2018-12-26T08:27:20.632Z,31.00
2018-12-26T08:28:26.515Z,29.00
2018-12-26T08:29:21.610Z,29.50
2018-12-26T08:30:20.609Z,28.70
2018-12-26T08:31:20.590Z,27.80
2018-12-26T08:32:20.617Z,32.30
2018-12-26T08:33:20.569Z,30.30
2018-12-26T08:34:20.559Z,29.20
2018-12-26T08:35:20.551Z,30.60
2018-12-26T08:36:20.546Z,30.60
2018-12-26T08:37:20.527Z,30.80
2018-12-26T08:38:20.518Z,29.50
2018-12-26T08:39:20.506Z,29.30
2018-12-26T08:40:20.495Z,30.30
2018-12-26T08:41:20.484Z,29.80
2018-12-26T08:42:20.479Z,29.40
2018-12-26T08:43:20.469Z,27.60
2018-12-26T08:44:20.463Z,29.20
2018-12-26T08:45:20.440Z,30.20
2018-12-26T08:46:20.431Z,29.30
2018-12-26T08:47:20.419Z,30.60
2018-12-26T08:48:20.420Z,29.40
2018-12-26T08:49:20.409Z,29.70
2018-12-26T08:50:20.390Z,32.00
2018-12-26T08:51:20.375Z,26.50
2018-12-26T08:52:20.364Z,26.70
2018-12-26T08:53:20.356Z,30.70
2018-12-26T08:54:20.339Z,24.60
2018-12-26T08:55:20.339Z,29.70
2018-12-26T08:56:20.326Z,27.20
2018-12-26T08:57:20.311Z,25.10
2018-12-26T08:58:20.306Z,27.00
2018-12-26T08:59:20.286Z,27.10
2018-12-26T09:00:20.279Z,26.90
2018-12-26T09:01:20.271Z,26.60
2018-12-26T09:02:20.264Z,26.70
2018-12-26T09:03:20.258Z,27.10
2018-12-26T09:04:20.239Z,27.00
2018-12-26T09:05:20.252Z,27.00
2018-12-26T09:06:20.214Z,24.10
2018-12-26T09:07:20.200Z,22.90
2018-12-26T09:08:20.198Z,23.00
2018-12-26T09:09:20.184Z,24.00
2018-12-26T09:10:20.169Z,25.30
2018-12-26T09:11:20.158Z,21.60
2018-12-26T09:12:20.146Z,24.90
2018-12-26T09:13:20.147Z,22.90
2018-12-26T09:14:20.129Z,23.20
2018-12-26T09:15:20.114Z,23.20
2018-12-26T09:16:20.106Z,22.60
2018-12-26T09:17:20.099Z,20.80
2018-12-26T09:18:20.107Z,19.60
2018-12-26T09:19:20.073Z,21.30
2018-12-26T09:20:20.068Z,21.60
2018-12-26T09:21:20.053Z,21.00
2018-12-26T09:22:20.044Z,21.10
2018-12-26T09:23:20.034Z,20.60
2018-12-26T09:24:20.022Z,23.00
2018-12-26T09:25:20.008Z,21.80
2018-12-26T09:26:19.996Z,20.10
2018-12-26T09:27:19.998Z,22.80
2018-12-26T09:28:19.978Z,21.10
2018-12-26T09:29:19.969Z,21.30
2018-12-26T09:30:19.973Z,23.00
2018-12-26T09:31:19.984Z,22.70
2018-12-26T09:32:19.930Z,21.60
2018-12-26T09:33:19.926Z,20.00
2018-12-26T09:34:19.911Z,20.40
2018-12-26T09:35:20.935Z,21.30
2018-12-26T09:36:19.892Z,21.10
2018-12-26T09:37:19.877Z,21.30
2018-12-26T09:38:19.870Z,22.90
2018-12-26T09:39:19.857Z,21.10
2018-12-26T09:40:19.850Z,20.80
2018-12-26T09:41:19.852Z,22.80
2018-12-26T09:42:19.826Z,22.70
2018-12-26T09:43:19.822Z,21.40
2018-12-26T09:44:19.799Z,20.30
2018-12-26T09:45:19.814Z,19.10
2018-12-26T09:46:19.779Z,20.50
2018-12-26T09:47:19.770Z,22.80
2018-12-26T09:48:19.759Z,22.50
2018-12-26T09:49:19.745Z,23.60
2018-12-26T09:50:19.734Z,24.10
2018-12-26T09:51:19.729Z,21.50
2018-12-26T09:52:19.717Z,22.30
2018-12-26T09:53:19.717Z,22.70
2018-12-26T09:54:19.702Z,22.60
2018-12-26T09:55:19.683Z,21.30
2018-12-26T09:56:19.673Z,23.00
2018-12-26T09:57:19.665Z,22.20
2018-12-26T09:58:19.653Z,22.10
2018-12-26T09:59:19.642Z,22.10
2018-12-26T10:00:19.628Z,21.40
2018-12-26T10:01:19.621Z,21.40
2018-12-26T10:02:19.611Z,20.20
2018-12-26T10:03:19.595Z,19.90
2018-12-26T10:04:19.618Z,22.40
2018-12-26T10:05:19.569Z,20.30
2018-12-26T10:06:19.566Z,23.30
2018-12-26T10:07:19.573Z,25.50
2018-12-26T10:08:19.542Z,23.50
2018-12-26T10:09:19.533Z,25.80
2018-12-26T10:10:19.523Z,26.30
2018-12-26T10:11:19.515Z,25.50
2018-12-26T10:12:19.503Z,25.10
2018-12-26T10:13:19.494Z,26.50
2018-12-26T10:14:19.486Z,22.60
2018-12-26T10:15:19.466Z,26.20
2018-12-26T10:16:19.460Z,28.90
2018-12-26T10:17:19.462Z,27.00
2018-12-26T10:18:19.448Z,25.60
2018-12-26T10:19:19.420Z,27.00
2018-12-26T10:20:19.417Z,29.20
2018-12-26T10:21:19.463Z,28.20
2018-12-26T10:22:19.393Z,27.50
2018-12-26T10:23:19.387Z,27.30
2018-12-26T10:24:19.365Z,27.70
2018-12-26T10:25:19.362Z,27.20
2018-12-26T10:26:19.353Z,27.20
2018-12-26T10:27:19.341Z,26.50
2018-12-26T10:28:19.324Z,24.60
2018-12-26T10:29:19.319Z,25.80
2018-12-26T10:30:19.323Z,28.00
2018-12-26T10:31:19.299Z,29.00
2018-12-26T10:32:19.292Z,27.50
2018-12-26T10:33:19.273Z,28.70
2018-12-26T10:34:19.263Z,29.40
2018-12-26T10:35:19.261Z,30.40
2018-12-26T10:36:19.239Z,28.60
2018-12-26T10:37:19.233Z,28.10
2018-12-26T10:38:19.219Z,31.70
2018-12-26T10:39:19.208Z,28.80
2018-12-26T10:40:19.213Z,29.40
2018-12-26T10:41:19.187Z,28.40
2018-12-26T10:42:19.173Z,28.10
2018-12-26T10:43:19.162Z,30.00
2018-12-26T10:44:19.159Z,29.30
2018-12-26T10:45:19.158Z,26.70
2018-12-26T10:46:19.135Z,27.10
2018-12-26T10:47:19.121Z,25.70
2018-12-26T10:48:19.116Z,27.50
2018-12-26T10:49:19.099Z,26.80
2018-12-26T10:50:19.089Z,28.90
2018-12-26T10:51:19.088Z,28.20
2018-12-26T10:52:19.084Z,28.80
2018-12-26T10:53:19.058Z,26.70
2018-12-26T10:54:19.042Z,30.80
2018-12-26T10:55:19.043Z,28.90
2018-12-26T10:56:19.027Z,26.10
2018-12-26T10:57:19.029Z,28.20
2018-12-26T10:58:19.009Z,26.10
2018-12-26T10:59:19.006Z,26.60
2018-12-26T11:00:18.982Z,26.80
2018-12-26T11:01:18.974Z,28.30
2018-12-26T11:02:18.959Z,27.20
2018-12-26T11:03:18.977Z,28.10
2018-12-26T11:04:18.935Z,28.00
2018-12-26T11:05:18.936Z,28.50
2018-12-26T11:06:18.930Z,29.70
2018-12-26T11:07:18.908Z,27.70
2018-12-26T11:08:18.911Z,30.00
2018-12-26T11:09:18.891Z,27.70
2018-12-26T11:10:18.882Z,28.60
2018-12-26T11:11:18.876Z,28.90
2018-12-26T11:12:18.855Z,27.20
2018-12-26T11:13:18.839Z,26.90
2018-12-26T11:14:18.831Z,27.60
2018-12-26T11:15:18.820Z,28.60
2018-12-26T11:16:18.829Z,26.40
2018-12-26T11:17:18.795Z,26.80
2018-12-26T11:18:18.791Z,28.50
2018-12-26T11:19:18.773Z,24.20
2018-12-26T11:20:18.767Z,23.20
2018-12-26T11:21:18.771Z,25.90
2018-12-26T11:22:18.761Z,28.30
2018-12-26T11:23:18.735Z,24.40
2018-12-26T11:24:18.747Z,22.00
2018-12-26T11:25:18.714Z,24.30
2018-12-26T11:26:18.705Z,23.90
2018-12-26T11:27:18.696Z,21.20
2018-12-26T11:28:18.679Z,22.60
2018-12-26T11:29:19.058Z,25.00
2018-12-26T11:30:18.657Z,21.60
2018-12-26T11:31:18.649Z,22.90
2018-12-26T11:32:18.641Z,21.30
2018-12-26T11:33:18.631Z,23.20
2018-12-26T11:34:18.626Z,22.00
2018-12-26T11:35:18.600Z,20.50
2018-12-26T11:36:18.594Z,22.60
2018-12-26T11:37:18.698Z,22.20
2018-12-26T11:38:18.571Z,20.70
2018-12-26T11:39:18.589Z,19.00
2018-12-26T11:40:18.569Z,22.10
2018-12-26T11:41:18.542Z,22.10
2018-12-26T11:42:18.530Z,21.00
2018-12-26T11:43:18.518Z,20.70
2018-12-26T11:44:18.520Z,21.60
2018-12-26T11:45:18.502Z,24.00
2018-12-26T11:46:18.492Z,22.30
2018-12-26T11:47:18.478Z,22.50
2018-12-26T11:48:18.460Z,22.30
2018-12-26T11:49:18.465Z,22.20
2018-12-26T11:50:18.451Z,22.50
2018-12-26T11:51:18.449Z,22.10
2018-12-26T11:52:18.440Z,23.20
2018-12-26T11:53:18.413Z,22.30
2018-12-26T11:54:18.402Z,21.60
2018-12-26T11:55:18.395Z,22.40
2018-12-26T11:56:18.382Z,20.60
2018-12-26T11:57:18.374Z,21.00
2018-12-26T11:58:18.370Z,23.70
2018-12-26T11:59:18.354Z,23.80
2018-12-26T12:00:18.336Z,22.20
2018-12-26T12:01:18.322Z,23.30
2018-12-26T12:02:20.715Z,21.30
2018-12-26T12:03:18.312Z,21.50
2018-12-26T12:04:18.294Z,21.30
2018-12-26T12:05:18.310Z,25.00
2018-12-26T12:06:18.272Z,22.50
2018-12-26T12:07:18.264Z,23.40
2018-12-26T12:08:18.251Z,23.70
2018-12-26T12:09:18.253Z,24.00
2018-12-26T12:10:18.247Z,25.10
2018-12-26T12:11:18.218Z,24.00
2018-12-26T12:12:18.209Z,26.80
2018-12-26T12:13:18.208Z,24.80
2018-12-26T12:14:18.188Z,24.90
2018-12-26T12:15:18.182Z,25.00
2018-12-26T12:16:18.168Z,26.80
2018-12-26T12:17:18.158Z,24.80
2018-12-26T12:18:18.144Z,26.50
2018-12-26T12:19:18.144Z,25.70
2018-12-26T12:20:18.124Z,26.70
2018-12-26T12:21:18.118Z,27.40
2018-12-26T12:22:18.099Z,27.60
2018-12-26T12:23:18.089Z,29.30
2018-12-26T12:24:18.134Z,27.20
2018-12-26T12:25:18.098Z,27.00
2018-12-26T12:26:18.065Z,27.80
2018-12-26T12:27:18.056Z,28.20
2018-12-26T12:28:18.076Z,28.30
2018-12-26T12:29:18.029Z,28.20
2018-12-26T12:30:18.016Z,31.40
2018-12-26T12:31:18.006Z,28.80
2018-12-26T12:32:17.996Z,29.20
2018-12-26T12:33:17.992Z,33.10
2018-12-26T12:34:17.970Z,30.40
2018-12-26T12:35:17.975Z,31.60
2018-12-26T12:36:17.950Z,33.70
2018-12-26T12:37:17.956Z,32.80
2018-12-26T12:38:17.944Z,37.70
2018-12-26T12:39:17.920Z,35.20
2018-12-26T12:40:17.906Z,34.60
2018-12-26T12:41:17.901Z,35.60
2018-12-26T12:42:17.894Z,33.20
2018-12-26T12:43:17.872Z,32.80
2018-12-26T12:44:17.872Z,36.50
2018-12-26T12:45:17.853Z,45.50
2018-12-26T12:46:17.838Z,36.90
2018-12-26T12:47:17.830Z,39.60
2018-12-26T12:48:17.816Z,35.60
2018-12-26T12:49:17.806Z,38.30
2018-12-26T12:50:17.798Z,37.00
2018-12-26T12:51:17.816Z,40.00
2018-12-26T12:52:17.774Z,39.90
2018-12-26T12:53:17.764Z,40.50
2018-12-26T12:54:17.760Z,43.00
2018-12-26T12:55:17.749Z,41.50
2018-12-26T12:56:17.740Z,40.10
2018-12-26T12:57:17.726Z,36.70